sensor_id;sensor_type;location;lat;lon;timestamp;pressure;altitude;pressure_sealevel;temperature;humidity
16461;BME280;8341;42.048;24.650;2023-04-06T00:00:45;96994.41;;;5.00;66.85
16461;BME280;8341;42.048;24.650;2023-04-06T00:03:12;96990.38;;;5.04;66.29
16461;BME280;8341;42.048;24.650;2023-04-06T00:05:40;96984.34;;;5.00;66.43
16461;BME280;8341;42.048;24.650;2023-04-06T00:08:08;96987.84;;;4.88;67.31
16461;BME280;8341;42.048;24.650;2023-04-06T00:10:35;96984.47;;;4.97;66.98
16461;BME280;8341;42.048;24.650;2023-04-06T00:13:02;96979.19;;;4.93;67.64
16461;BME280;8341;42.048;24.650;2023-04-06T00:15:29;96981.16;;;4.93;67.72
16461;BME280;8341;42.048;24.650;2023-04-06T00:17:56;96977.44;;;4.99;66.96
16461;BME280;8341;42.048;24.650;2023-04-06T00:20:24;96973.66;;;4.97;66.48
16461;BME280;8341;42.048;24.650;2023-04-06T00:22:52;96982.34;;;4.92;67.09
16461;BME280;8341;42.048;24.650;2023-04-06T00:25:19;96978.06;;;4.82;66.26
16461;BME280;8341;42.048;24.650;2023-04-06T00:27:46;96966.63;;;4.78;65.22
16461;BME280;8341;42.048;24.650;2023-04-06T00:30:14;96970.09;;;4.78;65.66
16461;BME280;8341;42.048;24.650;2023-04-06T00:32:41;96963.75;;;4.72;66.41
16461;BME280;8341;42.048;24.650;2023-04-06T00:35:08;96958.47;;;4.69;67.38
16461;BME280;8341;42.048;24.650;2023-04-06T00:37:35;96961.97;;;4.78;67.63
16461;BME280;8341;42.048;24.650;2023-04-06T00:40:05;96955.31;;;4.49;67.96
16461;BME280;8341;42.048;24.650;2023-04-06T00:42:33;96965.06;;;4.46;67.70
16461;BME280;8341;42.048;24.650;2023-04-06T00:45:01;96965.97;;;4.30;68.05
16461;BME280;8341;42.048;24.650;2023-04-06T00:47:28;96959.69;;;4.33;67.85
16461;BME280;8341;42.048;24.650;2023-04-06T00:49:56;96957.41;;;4.32;68.72
16461;BME280;8341;42.048;24.650;2023-04-06T00:52:23;96952.16;;;4.28;68.12
16461;BME280;8341;42.048;24.650;2023-04-06T00:54:50;96943.72;;;4.26;68.03
16461;BME280;8341;42.048;24.650;2023-04-06T00:57:19;96946.06;;;4.37;67.27
16461;BME280;8341;42.048;24.650;2023-04-06T00:59:46;96938.09;;;4.33;67.04
16461;BME280;8341;42.048;24.650;2023-04-06T01:02:13;96951.97;;;4.23;67.69
16461;BME280;8341;42.048;24.650;2023-04-06T01:04:41;96951.72;;;4.30;67.67
16461;BME280;8341;42.048;24.650;2023-04-06T01:07:08;96947.88;;;4.18;68.26
16461;BME280;8341;42.048;24.650;2023-04-06T01:09:35;96934.81;;;4.17;68.43
16461;BME280;8341;42.048;24.650;2023-04-06T01:12:02;96932.66;;;4.12;68.61
16461;BME280;8341;42.048;24.650;2023-04-06T01:14:31;96941.41;;;4.16;68.67
16461;BME280;8341;42.048;24.650;2023-04-06T01:16:58;96924.50;;;4.24;67.87
16461;BME280;8341;42.048;24.650;2023-04-06T01:19:26;96922.19;;;4.14;67.44
16461;BME280;8341;42.048;24.650;2023-04-06T01:21:53;96922.56;;;4.25;68.07
16461;BME280;8341;42.048;24.650;2023-04-06T01:24:21;96916.72;;;4.26;67.46
16461;BME280;8341;42.048;24.650;2023-04-06T01:26:49;96921.56;;;4.31;68.88
16461;BME280;8341;42.048;24.650;2023-04-06T01:29:16;96910.72;;;4.22;68.97
16461;BME280;8341;42.048;24.650;2023-04-06T01:31:43;96910.34;;;4.33;68.29
16461;BME280;8341;42.048;24.650;2023-04-06T01:34:10;96914.88;;;4.36;67.48
16461;BME280;8341;42.048;24.650;2023-04-06T01:36:37;96910.47;;;4.29;68.57
16461;BME280;8341;42.048;24.650;2023-04-06T01:39:04;96897.22;;;4.22;69.07
16461;BME280;8341;42.048;24.650;2023-04-06T01:41:33;96899.34;;;4.27;68.90
16461;BME280;8341;42.048;24.650;2023-04-06T01:44:00;96888.09;;;4.29;68.80
16461;BME280;8341;42.048;24.650;2023-04-06T01:46:27;96885.00;;;4.30;69.01
16461;BME280;8341;42.048;24.650;2023-04-06T01:48:54;96878.34;;;4.22;68.50
16461;BME280;8341;42.048;24.650;2023-04-06T01:51:21;96884.75;;;4.16;68.90
16461;BME280;8341;42.048;24.650;2023-04-06T01:53:49;96885.72;;;4.09;69.24
16461;BME280;8341;42.048;24.650;2023-04-06T01:56:17;96885.81;;;4.06;70.83
16461;BME280;8341;42.048;24.650;2023-04-06T01:58:45;96882.06;;;4.03;70.81
16461;BME280;8341;42.048;24.650;2023-04-06T02:01:12;96876.59;;;3.94;71.71
16461;BME280;8341;42.048;24.650;2023-04-06T02:03:40;96883.72;;;3.88;71.14
16461;BME280;8341;42.048;24.650;2023-04-06T02:06:07;96888.81;;;3.86;70.84
16461;BME280;8341;42.048;24.650;2023-04-06T02:08:34;96891.75;;;3.79;69.66
16461;BME280;8341;42.048;24.650;2023-04-06T02:11:01;96894.19;;;3.86;70.51
16461;BME280;8341;42.048;24.650;2023-04-06T02:13:28;96887.38;;;3.94;69.80
16461;BME280;8341;42.048;24.650;2023-04-06T02:15:56;96886.47;;;3.75;71.29
16461;BME280;8341;42.048;24.650;2023-04-06T02:18:24;96897.44;;;3.81;70.50
16461;BME280;8341;42.048;24.650;2023-04-06T02:20:51;96889.91;;;3.76;71.77
16461;BME280;8341;42.048;24.650;2023-04-06T02:23:18;96887.78;;;3.71;70.10
16461;BME280;8341;42.048;24.650;2023-04-06T02:25:45;96896.06;;;3.76;70.80
16461;BME280;8341;42.048;24.650;2023-04-06T02:28:12;96892.06;;;3.81;70.61
16461;BME280;8341;42.048;24.650;2023-04-06T02:30:40;96886.44;;;3.88;69.71
16461;BME280;8341;42.048;24.650;2023-04-06T02:33:08;96892.06;;;3.81;70.13
16461;BME280;8341;42.048;24.650;2023-04-06T02:35:35;96891.53;;;3.73;68.65
16461;BME280;8341;42.048;24.650;2023-04-06T02:38:02;96890.78;;;3.73;68.34
16461;BME280;8341;42.048;24.650;2023-04-06T02:40:30;96900.06;;;3.72;69.65
16461;BME280;8341;42.048;24.650;2023-04-06T02:42:57;96894.44;;;3.79;70.64
16461;BME280;8341;42.048;24.650;2023-04-06T02:45:24;96902.31;;;3.73;70.50
16461;BME280;8341;42.048;24.650;2023-04-06T02:47:51;96892.81;;;3.82;71.16
16461;BME280;8341;42.048;24.650;2023-04-06T02:50:20;96891.66;;;3.83;70.69
16461;BME280;8341;42.048;24.650;2023-04-06T02:52:47;96899.72;;;3.70;69.73
16461;BME280;8341;42.048;24.650;2023-04-06T02:55:14;96902.44;;;3.83;70.03
16461;BME280;8341;42.048;24.650;2023-04-06T02:57:41;96906.00;;;3.79;70.44
16461;BME280;8341;42.048;24.650;2023-04-06T03:00:10;96905.78;;;3.74;69.76
16461;BME280;8341;42.048;24.650;2023-04-06T03:02:37;96903.09;;;3.74;70.02
16461;BME280;8341;42.048;24.650;2023-04-06T03:05:04;96898.66;;;3.67;69.18
16461;BME280;8341;42.048;24.650;2023-04-06T03:07:33;96900.06;;;3.72;69.26
16461;BME280;8341;42.048;24.650;2023-04-06T03:10:00;96900.81;;;3.72;69.21
16461;BME280;8341;42.048;24.650;2023-04-06T03:12:27;96898.44;;;3.74;67.64
16461;BME280;8341;42.048;24.650;2023-04-06T03:14:54;96908.28;;;3.68;69.84
16461;BME280;8341;42.048;24.650;2023-04-06T03:17:21;96903.75;;;3.65;68.79
16461;BME280;8341;42.048;24.650;2023-04-06T03:19:48;96908.16;;;3.72;69.77
16461;BME280;8341;42.048;24.650;2023-04-06T03:22:16;96905.03;;;3.73;68.83
16461;BME280;8341;42.048;24.650;2023-04-06T03:24:44;96902.00;;;3.71;69.08
16461;BME280;8341;42.048;24.650;2023-04-06T03:27:11;96914.59;;;3.87;68.82
16461;BME280;8341;42.048;24.650;2023-04-06T03:29:38;96909.53;;;3.89;68.58
16461;BME280;8341;42.048;24.650;2023-04-06T03:32:06;96910.38;;;3.86;68.80
16461;BME280;8341;42.048;24.650;2023-04-06T03:34:33;96915.13;;;3.95;69.17
16461;BME280;8341;42.048;24.650;2023-04-06T03:37:00;96910.38;;;3.86;68.19
16461;BME280;8341;42.048;24.650;2023-04-06T03:39:27;96911.78;;;3.91;68.13
16461;BME280;8341;42.048;24.650;2023-04-06T03:41:56;96916.06;;;4.01;67.26
16461;BME280;8341;42.048;24.650;2023-04-06T03:44:23;96919.31;;;4.08;66.92
16461;BME280;8341;42.048;24.650;2023-04-06T03:46:50;96920.47;;;4.07;67.23
16461;BME280;8341;42.048;24.650;2023-04-06T03:49:17;96919.06;;;4.15;65.22
16461;BME280;8341;42.048;24.650;2023-04-06T03:51:44;96921.34;;;4.04;66.30
16461;BME280;8341;42.048;24.650;2023-04-06T03:54:12;96911.06;;;4.12;66.38
16461;BME280;8341;42.048;24.650;2023-04-06T03:56:39;96920.59;;;4.04;66.38
16461;BME280;8341;42.048;24.650;2023-04-06T03:59:08;96907.06;;;4.16;65.36
16461;BME280;8341;42.048;24.650;2023-04-06T04:01:35;96926.19;;;4.09;65.67
16461;BME280;8341;42.048;24.650;2023-04-06T04:04:02;96911.06;;;4.12;66.53
16461;BME280;8341;42.048;24.650;2023-04-06T04:06:29;96917.63;;;4.23;66.66
16461;BME280;8341;42.048;24.650;2023-04-06T04:08:56;96921.25;;;4.29;66.01
16461;BME280;8341;42.048;24.650;2023-04-06T04:11:24;96918.50;;;4.20;66.44
16461;BME280;8341;42.048;24.650;2023-04-06T04:13:51;96930.28;;;4.14;66.38
16461;BME280;8341;42.048;24.650;2023-04-06T04:16:19;96922.56;;;4.25;64.82
16461;BME280;8341;42.048;24.650;2023-04-06T04:18:46;96926.03;;;4.25;66.61
16461;BME280;8341;42.048;24.650;2023-04-06T04:21:14;96933.38;;;4.25;66.05
16461;BME280;8341;42.048;24.650;2023-04-06T04:23:41;96931.03;;;4.14;66.10
16461;BME280;8341;42.048;24.650;2023-04-06T04:26:08;96925.38;;;4.21;65.68
16461;BME280;8341;42.048;24.650;2023-04-06T04:28:35;96927.66;;;4.23;65.51
16461;BME280;8341;42.048;24.650;2023-04-06T04:31:02;96926.38;;;4.15;64.54
16461;BME280;8341;42.048;24.650;2023-04-06T04:33:31;96944.63;;;4.23;65.10
16461;BME280;8341;42.048;24.650;2023-04-06T04:35:58;96938.56;;;4.19;65.75
16461;BME280;8341;42.048;24.650;2023-04-06T04:38:25;96933.38;;;4.25;64.27
16461;BME280;8341;42.048;24.650;2023-04-06T04:40:52;96935.09;;;4.19;64.72
16461;BME280;8341;42.048;24.650;2023-04-06T04:43:20;96938.72;;;4.37;64.52
16461;BME280;8341;42.048;24.650;2023-04-06T04:45:47;96940.03;;;4.33;63.92
16461;BME280;8341;42.048;24.650;2023-04-06T04:48:14;96947.97;;;4.49;63.80
16461;BME280;8341;42.048;24.650;2023-04-06T04:50:42;96940.38;;;4.57;63.87
16461;BME280;8341;42.048;24.650;2023-04-06T04:53:09;96940.25;;;4.60;63.24
16461;BME280;8341;42.048;24.650;2023-04-06T04:55:36;96934.47;;;4.71;62.73
16461;BME280;8341;42.048;24.650;2023-04-06T04:58:04;96944.19;;;4.68;62.96
16461;BME280;8341;42.048;24.650;2023-04-06T05:00:31;96939.81;;;4.62;62.83
16461;BME280;8341;42.048;24.650;2023-04-06T05:02:58;96936.47;;;4.58;63.56
16461;BME280;8341;42.048;24.650;2023-04-06T05:05:25;96939.31;;;4.76;62.68
16461;BME280;8341;42.048;24.650;2023-04-06T05:07:54;96932.53;;;4.71;62.64
16461;BME280;8341;42.048;24.650;2023-04-06T05:10:21;96921.53;;;4.66;62.36
16461;BME280;8341;42.048;24.650;2023-04-06T05:12:48;96938.22;;;4.95;62.20
16461;BME280;8341;42.048;24.650;2023-04-06T05:15:16;96940.09;;;5.07;60.61
16461;BME280;8341;42.048;24.650;2023-04-06T05:17:43;96925.56;;;5.14;60.90
16461;BME280;8341;42.048;24.650;2023-04-06T05:20:11;96935.06;;;5.18;60.09
16461;BME280;8341;42.048;24.650;2023-04-06T05:22:38;96933.25;;;5.24;60.53
16461;BME280;8341;42.048;24.650;2023-04-06T05:25:08;96929.84;;;5.33;60.25
16461;BME280;8341;42.048;24.650;2023-04-06T05:27:35;96925.81;;;5.37;60.19
16461;BME280;8341;42.048;24.650;2023-04-06T05:30:02;96920.78;;;4.87;61.60
16461;BME280;8341;42.048;24.650;2023-04-06T05:32:30;96921.75;;;5.02;61.91
16461;BME280;8341;42.048;24.650;2023-04-06T05:34:57;96915.09;;;4.94;61.38
16461;BME280;8341;42.048;24.650;2023-04-06T05:37:24;96909.56;;;4.97;61.09
16461;BME280;8341;42.048;24.650;2023-04-06T05:42:37;96905.44;;;4.84;62.21
16461;BME280;8341;42.048;24.650;2023-04-06T05:45:06;96908.25;;;4.80;62.38
16461;BME280;8341;42.048;24.650;2023-04-06T05:47:33;96903.03;;;4.86;62.15
16461;BME280;8341;42.048;24.650;2023-04-06T05:50:00;96900.25;;;4.98;62.38
16461;BME280;8341;42.048;24.650;2023-04-06T05:52:28;96899.53;;;4.98;62.14
16461;BME280;8341;42.048;24.650;2023-04-06T05:54:55;96902.25;;;5.07;61.52
16461;BME280;8341;42.048;24.650;2023-04-06T05:57:22;96898.72;;;5.19;61.60
16461;BME280;8341;42.048;24.650;2023-04-06T05:59:51;96890.34;;;5.26;62.40
16461;BME280;8341;42.048;24.650;2023-04-06T06:02:18;96880.75;;;5.34;60.63
16461;BME280;8341;42.048;24.650;2023-04-06T06:04:45;96883.44;;;5.34;60.81
16461;BME280;8341;42.048;24.650;2023-04-06T06:07:13;96877.72;;;5.23;61.11
16461;BME280;8341;42.048;24.650;2023-04-06T06:09:40;96873.53;;;5.31;61.00
16461;BME280;8341;42.048;24.650;2023-04-06T06:12:08;96856.41;;;5.34;60.85
16461;BME280;8341;42.048;24.650;2023-04-06T06:14:35;96877.56;;;5.27;61.44
16461;BME280;8341;42.048;24.650;2023-04-06T06:17:03;96869.25;;;5.12;61.62
16461;BME280;8341;42.048;24.650;2023-04-06T06:19:30;96868.97;;;5.19;61.06
16461;BME280;8341;42.048;24.650;2023-04-06T06:21:57;96866.31;;;5.28;61.57
16461;BME280;8341;42.048;24.650;2023-04-06T06:24:28;96859.41;;;5.27;62.13
16461;BME280;8341;42.048;24.650;2023-04-06T06:26:56;96861.84;;;5.43;62.28
16461;BME280;8341;42.048;24.650;2023-04-06T06:29:24;96867.91;;;5.56;61.22
16461;BME280;8341;42.048;24.650;2023-04-06T06:31:51;96872.38;;;5.50;61.17
16461;BME280;8341;42.048;24.650;2023-04-06T06:34:19;96869.13;;;5.64;61.51
16461;BME280;8341;42.048;24.650;2023-04-06T06:36:46;96863.50;;;5.50;60.78
16461;BME280;8341;42.048;24.650;2023-04-06T06:39:13;96862.78;;;5.49;60.77
16461;BME280;8341;42.048;24.650;2023-04-06T06:41:40;96847.75;;;5.57;60.89
16461;BME280;8341;42.048;24.650;2023-04-06T06:44:08;96873.03;;;5.63;60.27
16461;BME280;8341;42.048;24.650;2023-04-06T06:46:35;96867.00;;;5.59;60.67
16461;BME280;8341;42.048;24.650;2023-04-06T06:49:02;96846.56;;;5.49;60.17
16461;BME280;8341;42.048;24.650;2023-04-06T06:51:31;96870.94;;;5.77;59.87
16461;BME280;8341;42.048;24.650;2023-04-06T06:53:58;96867.91;;;5.65;60.10
16461;BME280;8341;42.048;24.650;2023-04-06T06:56:25;96868.84;;;5.81;59.87
16461;BME280;8341;42.048;24.650;2023-04-06T06:58:53;96869.94;;;5.92;59.35
16461;BME280;8341;42.048;24.650;2023-04-06T07:01:20;96872.97;;;6.03;60.10
16461;BME280;8341;42.048;24.650;2023-04-06T07:03:47;96858.22;;;6.22;58.65
16461;BME280;8341;42.048;24.650;2023-04-06T07:06:14;96855.06;;;6.33;58.67
16461;BME280;8341;42.048;24.650;2023-04-06T07:08:43;96861.66;;;6.50;58.60
16461;BME280;8341;42.048;24.650;2023-04-06T07:11:10;96868.44;;;6.55;59.21
16461;BME280;8341;42.048;24.650;2023-04-06T07:13:37;96862.72;;;6.35;59.18
16461;BME280;8341;42.048;24.650;2023-04-06T07:16:04;96855.03;;;6.24;59.92
16461;BME280;8341;42.048;24.650;2023-04-06T07:18:31;96854.91;;;6.27;60.69
16461;BME280;8341;42.048;24.650;2023-04-06T07:20:59;96863.66;;;6.32;58.52
16461;BME280;8341;42.048;24.650;2023-04-06T07:23:26;96852.34;;;6.33;59.82
16461;BME280;8341;42.048;24.650;2023-04-06T07:25:54;96863.16;;;6.42;59.44
16461;BME280;8341;42.048;24.650;2023-04-06T07:28:21;96866.19;;;6.44;59.74
16461;BME280;8341;42.048;24.650;2023-04-06T07:30:48;96851.41;;;6.63;59.05
16461;BME280;8341;42.048;24.650;2023-04-06T07:33:16;96858.28;;;6.82;59.10
16461;BME280;8341;42.048;24.650;2023-04-06T07:35:43;96858.91;;;6.68;58.31
16461;BME280;8341;42.048;24.650;2023-04-06T07:38:10;96859.47;;;6.81;56.83
16461;BME280;8341;42.048;24.650;2023-04-06T07:40:37;96867.19;;;6.83;56.66
16461;BME280;8341;42.048;24.650;2023-04-06T07:43:06;96863.03;;;7.06;56.00
16461;BME280;8341;42.048;24.650;2023-04-06T07:45:33;96867.28;;;7.30;55.86
16461;BME280;8341;42.048;24.650;2023-04-06T07:48:00;96872.06;;;7.44;55.86
16461;BME280;8341;42.048;24.650;2023-04-06T07:50:27;96865.53;;;7.51;54.40
16461;BME280;8341;42.048;24.650;2023-04-06T07:52:55;96872.06;;;7.44;54.52
16461;BME280;8341;42.048;24.650;2023-04-06T07:55:23;96872.34;;;7.46;53.77
16461;BME280;8341;42.048;24.650;2023-04-06T07:57:50;96872.22;;;7.41;53.92
16461;BME280;8341;42.048;24.650;2023-04-06T08:00:19;96875.06;;;7.46;52.68
16461;BME280;8341;42.048;24.650;2023-04-06T08:02:46;96868.53;;;7.53;54.23
16461;BME280;8341;42.048;24.650;2023-04-06T08:05:14;96859.38;;;7.74;54.60
16461;BME280;8341;42.048;24.650;2023-04-06T08:07:41;96872.44;;;7.85;54.90
16461;BME280;8341;42.048;24.650;2023-04-06T08:10:09;96860.66;;;7.88;54.69
16461;BME280;8341;42.048;24.650;2023-04-06T08:12:36;96862.94;;;8.04;53.52
16461;BME280;8341;42.048;24.650;2023-04-06T08:15:04;96863.13;;;8.00;53.39
16461;BME280;8341;42.048;24.650;2023-04-06T08:17:33;96863.25;;;7.82;53.11
16461;BME280;8341;42.048;24.650;2023-04-06T08:20:00;96856.91;;;7.85;53.98
16461;BME280;8341;42.048;24.650;2023-04-06T08:22:30;96857.97;;;8.02;52.78
16461;BME280;8341;42.048;24.650;2023-04-06T08:24:57;96860.31;;;8.09;52.45
16461;BME280;8341;42.048;24.650;2023-04-06T08:27:24;96854.72;;;8.13;52.77
16461;BME280;8341;42.048;24.650;2023-04-06T08:29:51;96844.25;;;8.20;54.09
16461;BME280;8341;42.048;24.650;2023-04-06T08:32:18;96850.91;;;8.19;53.19
16461;BME280;8341;42.048;24.650;2023-04-06T08:34:47;96845.69;;;7.92;52.55
16461;BME280;8341;42.048;24.650;2023-04-06T08:37:14;96850.22;;;8.10;51.69
16461;BME280;8341;42.048;24.650;2023-04-06T08:39:41;96828.94;;;8.32;54.61
16461;BME280;8341;42.048;24.650;2023-04-06T08:42:12;96838.69;;;8.53;53.67
16461;BME280;8341;42.048;24.650;2023-04-06T08:44:44;96836.25;;;8.55;54.53
16461;BME280;8341;42.048;24.650;2023-04-06T08:47:12;96836.94;;;8.65;53.68
16461;BME280;8341;42.048;24.650;2023-04-06T08:49:39;96834.97;;;8.80;53.52
16461;BME280;8341;42.048;24.650;2023-04-06T08:52:10;96833.44;;;8.94;52.66
16461;BME280;8341;42.048;24.650;2023-04-06T08:54:37;96834.97;;;8.80;52.19
16461;BME280;8341;42.048;24.650;2023-04-06T08:57:05;96825.31;;;8.79;52.16
16461;BME280;8341;42.048;24.650;2023-04-06T08:59:33;96826.22;;;9.05;52.41
16461;BME280;8341;42.048;24.650;2023-04-06T09:02:03;96801.50;;;9.23;51.57
16461;BME280;8341;42.048;24.650;2023-04-06T09:04:32;96813.63;;;9.57;51.10
16461;BME280;8341;42.048;24.650;2023-04-06T09:07:00;96820.22;;;9.01;51.34
16461;BME280;8341;42.048;24.650;2023-04-06T09:09:29;96816.03;;;8.71;51.92
16461;BME280;8341;42.048;24.650;2023-04-06T09:11:56;96804.94;;;8.89;53.60
16461;BME280;8341;42.048;24.650;2023-04-06T09:14:35;96814.53;;;8.85;52.58
16461;BME280;8341;42.048;24.650;2023-04-06T09:17:03;96785.50;;;8.47;52.78
16461;BME280;8341;42.048;24.650;2023-04-06T09:19:31;96804.88;;;8.69;51.52
16461;BME280;8341;42.048;24.650;2023-04-06T09:22:04;96818.81;;;8.91;52.06
16461;BME280;8341;42.048;24.650;2023-04-06T09:24:44;96810.75;;;8.97;52.20
16461;BME280;8341;42.048;24.650;2023-04-06T09:27:11;96789.56;;;8.86;52.78
16461;BME280;8341;42.048;24.650;2023-04-06T09:29:39;96807.19;;;9.05;53.76
16461;BME280;8341;42.048;24.650;2023-04-06T09:32:07;96803.31;;;9.47;53.61
16461;BME280;8341;42.048;24.650;2023-04-06T09:34:37;96798.03;;;9.58;53.19
16461;BME280;8341;42.048;24.650;2023-04-06T09:37:14;96793.53;;;9.95;52.16
16461;BME280;8341;42.048;24.650;2023-04-06T09:39:42;96797.75;;;9.76;50.57
16461;BME280;8341;42.048;24.650;2023-04-06T09:42:10;96798.16;;;10.09;49.66
16461;BME280;8341;42.048;24.650;2023-04-06T09:44:38;96779.22;;;10.20;48.76
16461;BME280;8341;42.048;24.650;2023-04-06T09:47:06;96795.88;;;10.07;49.32
16461;BME280;8341;42.048;24.650;2023-04-06T09:49:37;96791.63;;;10.01;49.89
16461;BME280;8341;42.048;24.650;2023-04-06T09:52:06;96795.56;;;10.00;49.94
16461;BME280;8341;42.048;24.650;2023-04-06T09:54:35;96794.19;;;10.10;48.35
16461;BME280;8341;42.048;24.650;2023-04-06T09:57:10;96786.72;;;9.65;49.32
16461;BME280;8341;42.048;24.650;2023-04-06T09:59:44;96791.63;;;9.81;49.53
16461;BME280;8341;42.048;24.650;2023-04-06T10:02:18;96776.00;;;10.01;50.29
16461;BME280;8341;42.048;24.650;2023-04-06T10:04:52;96783.28;;;10.10;49.43
16461;BME280;8341;42.048;24.650;2023-04-06T10:07:21;96787.91;;;10.04;49.85
16461;BME280;8341;42.048;24.650;2023-04-06T10:09:49;96782.47;;;10.24;49.82
16461;BME280;8341;42.048;24.650;2023-04-06T10:12:19;96793.09;;;10.02;50.17
16461;BME280;8341;42.048;24.650;2023-04-06T10:14:46;96784.72;;;10.05;49.79
16461;BME280;8341;42.048;24.650;2023-04-06T10:17:14;96784.22;;;10.27;49.98
16461;BME280;8341;42.048;24.650;2023-04-06T10:19:44;96777.81;;;10.30;49.06
16461;BME280;8341;42.048;24.650;2023-04-06T10:22:20;96771.47;;;10.13;49.98
16461;BME280;8341;42.048;24.650;2023-04-06T10:24:49;96768.69;;;10.33;51.18
16461;BME280;8341;42.048;24.650;2023-04-06T10:27:27;96759.47;;;10.56;48.88
16461;BME280;8341;42.048;24.650;2023-04-06T10:30:01;96767.13;;;10.84;48.97
16461;BME280;8341;42.048;24.650;2023-04-06T10:32:33;96772.31;;;10.82;47.82
16461;BME280;8341;42.048;24.650;2023-04-06T10:35:08;96765.84;;;10.79;49.16
16461;BME280;8341;42.048;24.650;2023-04-06T10:37:52;96766.59;;;11.11;47.68
16461;BME280;8341;42.048;24.650;2023-04-06T10:40:22;96753.97;;;11.19;47.29
16461;BME280;8341;42.048;24.650;2023-04-06T10:42:52;96761.19;;;11.22;47.28
16461;BME280;8341;42.048;24.650;2023-04-06T10:45:20;96750.34;;;11.39;47.24
16461;BME280;8341;42.048;24.650;2023-04-06T10:47:48;96757.47;;;11.25;47.34
16461;BME280;8341;42.048;24.650;2023-04-06T10:50:16;96743.28;;;10.79;48.38
16461;BME280;8341;42.048;24.650;2023-04-06T10:52:44;96752.50;;;10.55;45.99
16461;BME280;8341;42.048;24.650;2023-04-06T10:55:14;96748.31;;;10.86;48.35
16461;BME280;8341;42.048;24.650;2023-04-06T10:57:41;96746.19;;;10.69;49.05
16461;BME280;8341;42.048;24.650;2023-04-06T11:00:12;96745.38;;;10.95;48.24
16461;BME280;8341;42.048;24.650;2023-04-06T11:02:39;96738.00;;;11.49;48.34
16461;BME280;8341;42.048;24.650;2023-04-06T11:05:07;96727.00;;;11.85;47.11
16461;BME280;8341;42.048;24.650;2023-04-06T11:07:34;96729.28;;;12.04;45.92
16461;BME280;8341;42.048;24.650;2023-04-06T11:10:01;96729.44;;;11.72;44.58
16461;BME280;8341;42.048;24.650;2023-04-06T11:12:29;96715.94;;;11.52;47.39
16461;BME280;8341;42.048;24.650;2023-04-06T11:14:57;96724.69;;;11.67;46.42
16461;BME280;8341;42.048;24.650;2023-04-06T11:17:31;96726.31;;;11.48;45.65
16461;BME280;8341;42.048;24.650;2023-04-06T11:19:59;96728.28;;;11.37;46.81
16461;BME280;8341;42.048;24.650;2023-04-06T11:22:26;96725.75;;;11.33;46.53
16461;BME280;8341;42.048;24.650;2023-04-06T11:25:04;96718.91;;;11.54;47.01
16461;BME280;8341;42.048;24.650;2023-04-06T11:27:32;96722.59;;;11.46;46.85
16461;BME280;8341;42.048;24.650;2023-04-06T11:30:00;96725.28;;;11.40;46.66
16461;BME280;8341;42.048;24.650;2023-04-06T11:32:27;96712.63;;;11.31;47.26
16461;BME280;8341;42.048;24.650;2023-04-06T11:34:57;96716.03;;;11.74;46.28
16461;BME280;8341;42.048;24.650;2023-04-06T11:37:26;96708.19;;;12.26;44.48
16461;BME280;8341;42.048;24.650;2023-04-06T11:39:54;96709.75;;;11.57;45.46
16461;BME280;8341;42.048;24.650;2023-04-06T11:42:23;96703.50;;;11.51;45.60
16461;BME280;8341;42.048;24.650;2023-04-06T11:44:51;96703.44;;;11.35;46.05
16461;BME280;8341;42.048;24.650;2023-04-06T11:47:19;96709.28;;;11.11;46.98
16461;BME280;8341;42.048;24.650;2023-04-06T11:49:47;96710.84;;;10.86;47.53
16461;BME280;8341;42.048;24.650;2023-04-06T11:52:18;96700.72;;;10.24;47.83
16461;BME280;8341;42.048;24.650;2023-04-06T11:54:46;96708.38;;;10.51;48.33
16461;BME280;8341;42.048;24.650;2023-04-06T11:57:14;96708.53;;;10.74;48.00
16461;BME280;8341;42.048;24.650;2023-04-06T11:59:42;96705.94;;;10.90;48.68
16461;BME280;8341;42.048;24.650;2023-04-06T12:02:10;96704.72;;;10.97;48.08
16461;BME280;8341;42.048;24.650;2023-04-06T12:04:37;96709.44;;;10.96;47.97
16461;BME280;8341;42.048;24.650;2023-04-06T12:07:05;96715.00;;;11.13;46.20
16461;BME280;8341;42.048;24.650;2023-04-06T12:09:33;96703.22;;;10.90;46.04
16461;BME280;8341;42.048;24.650;2023-04-06T12:12:02;96715.72;;;10.71;46.27
16461;BME280;8341;42.048;24.650;2023-04-06T12:14:30;96714.13;;;10.90;48.03
16461;BME280;8341;42.048;24.650;2023-04-06T12:16:57;96704.59;;;11.17;46.92
16461;BME280;8341;42.048;24.650;2023-04-06T12:19:24;96707.91;;;11.38;47.13
16461;BME280;8341;42.048;24.650;2023-04-06T12:21:52;96707.72;;;10.99;45.64
16461;BME280;8341;42.048;24.650;2023-04-06T12:24:20;96706.97;;;10.61;47.45
16461;BME280;8341;42.048;24.650;2023-04-06T12:26:48;96709.66;;;10.93;47.13
16461;BME280;8341;42.048;24.650;2023-04-06T12:29:15;96708.59;;;10.48;46.60
16461;BME280;8341;42.048;24.650;2023-04-06T12:31:42;96702.50;;;10.07;47.38
16461;BME280;8341;42.048;24.650;2023-04-06T12:34:10;96705.84;;;10.42;47.93
16461;BME280;8341;42.048;24.650;2023-04-06T12:36:37;96692.16;;;10.74;48.49
16461;BME280;8341;42.048;24.650;2023-04-06T12:39:05;96706.97;;;10.61;47.08
16461;BME280;8341;42.048;24.650;2023-04-06T12:41:32;96712.31;;;10.82;45.60
16461;BME280;8341;42.048;24.650;2023-04-06T12:44:01;96702.44;;;10.90;46.93
16461;BME280;8341;42.048;24.650;2023-04-06T12:46:29;96684.31;;;10.87;46.06
16461;BME280;8341;42.048;24.650;2023-04-06T12:48:57;96700.59;;;11.12;45.16
16461;BME280;8341;42.048;24.650;2023-04-06T12:51:26;96704.19;;;11.29;46.22
16461;BME280;8341;42.048;24.650;2023-04-06T12:53:54;96700.16;;;11.25;45.43
16461;BME280;8341;42.048;24.650;2023-04-06T12:56:21;96700.56;;;11.07;46.36
16461;BME280;8341;42.048;24.650;2023-04-06T12:58:50;96701.75;;;10.95;45.59
16461;BME280;8341;42.048;24.650;2023-04-06T13:01:18;96692.66;;;11.09;45.95
16461;BME280;8341;42.048;24.650;2023-04-06T13:03:46;96704.72;;;10.97;46.02
16461;BME280;8341;42.048;24.650;2023-04-06T13:06:13;96698.63;;;10.71;44.99
16461;BME280;8341;42.048;24.650;2023-04-06T13:08:41;96700.91;;;10.78;46.00
16461;BME280;8341;42.048;24.650;2023-04-06T13:11:08;96699.13;;;10.75;46.07
16461;BME280;8341;42.048;24.650;2023-04-06T13:13:35;96695.91;;;10.71;47.00